sensor_id;sensor_type;location;lat;lon;timestamp;P1;durP1;ratioP1;P2;durP2;ratioP2
78561;SDS011;68963;52.138;5.446;2024-03-29T00:02:01;5.55;;;0.93;;
78561;SDS011;68963;52.138;5.446;2024-03-29T00:04:27;6.68;;;0.75;;
78561;SDS011;68963;52.138;5.446;2024-03-29T00:06:52;4.72;;;0.88;;
78561;SDS011;68963;52.138;5.446;2024-03-29T00:09:18;4.72;;;0.90;;
78561;SDS011;68963;52.138;5.446;2024-03-29T00:11:43;5.97;;;1.40;;
78561;SDS011;68963;52.138;5.446;2024-03-29T00:14:09;4.63;;;0.80;;
78561;SDS011;68963;52.138;5.446;2024-03-29T00:16:34;4.70;;;0.70;;
78561;SDS011;68963;52.138;5.446;2024-03-29T00:19:00;3.78;;;0.80;;
78561;SDS011;68963;52.138;5.446;2024-03-29T00:21:25;6.68;;;0.93;;
78561;SDS011;68963;52.138;5.446;2024-03-29T00:23:51;4.70;;;0.80;;
78561;SDS011;68963;52.138;5.446;2024-03-29T00:26:16;3.97;;;0.82;;
78561;SDS011;68963;52.138;5.446;2024-03-29T00:28:42;4.93;;;0.75;;
78561;SDS011;68963;52.138;5.446;2024-03-29T00:31:08;3.92;;;0.70;;
78561;SDS011;68963;52.138;5.446;2024-03-29T00:33:34;4.18;;;0.90;;
78561;SDS011;68963;52.138;5.446;2024-03-29T00:36:00;4.18;;;0.75;;
78561;SDS011;68963;52.138;5.446;2024-03-29T00:38:26;3.30;;;0.70;;
78561;SDS011;68963;52.138;5.446;2024-03-29T00:40:52;3.08;;;0.70;;
78561;SDS011;68963;52.138;5.446;2024-03-29T00:43:17;4.22;;;0.70;;
78561;SDS011;68963;52.138;5.446;2024-03-29T00:45:43;5.07;;;0.80;;
78561;SDS011;68963;52.138;5.446;2024-03-29T00:48:09;6.72;;;1.02;;
78561;SDS011;68963;52.138;5.446;2024-03-29T00:50:34;5.68;;;0.90;;
78561;SDS011;68963;52.138;5.446;2024-03-29T00:53:00;5.22;;;1.10;;
78561;SDS011;68963;52.138;5.446;2024-03-29T00:55:25;4.57;;;0.75;;
78561;SDS011;68963;52.138;5.446;2024-03-29T00:57:51;4.28;;;0.70;;
78561;SDS011;68963;52.138;5.446;2024-03-29T01:00:17;4.38;;;0.98;;
78561;SDS011;68963;52.138;5.446;2024-03-29T01:02:42;5.28;;;0.80;;
78561;SDS011;68963;52.138;5.446;2024-03-29T01:05:08;3.78;;;0.77;;
78561;SDS011;68963;52.138;5.446;2024-03-29T01:07:34;4.95;;;0.95;;
78561;SDS011;68963;52.138;5.446;2024-03-29T01:10:00;4.90;;;0.80;;
78561;SDS011;68963;52.138;5.446;2024-03-29T01:12:25;6.43;;;1.13;;
78561;SDS011;68963;52.138;5.446;2024-03-29T01:14:51;3.95;;;0.70;;
78561;SDS011;68963;52.138;5.446;2024-03-29T01:17:17;3.70;;;0.65;;
78561;SDS011;68963;52.138;5.446;2024-03-29T01:19:43;8.68;;;1.00;;
78561;SDS011;68963;52.138;5.446;2024-03-29T01:22:08;4.85;;;0.70;;
78561;SDS011;68963;52.138;5.446;2024-03-29T01:24:34;4.50;;;1.02;;
78561;SDS011;68963;52.138;5.446;2024-03-29T01:27:00;5.13;;;0.77;;
78561;SDS011;68963;52.138;5.446;2024-03-29T01:29:25;5.13;;;0.68;;
78561;SDS011;68963;52.138;5.446;2024-03-29T01:31:51;4.55;;;0.75;;
78561;SDS011;68963;52.138;5.446;2024-03-29T01:34:16;5.90;;;0.77;;
78561;SDS011;68963;52.138;5.446;2024-03-29T01:36:42;3.10;;;0.70;;
78561;SDS011;68963;52.138;5.446;2024-03-29T01:39:08;6.93;;;0.70;;
78561;SDS011;68963;52.138;5.446;2024-03-29T01:41:36;5.30;;;0.90;;
78561;SDS011;68963;52.138;5.446;2024-03-29T01:44:01;5.15;;;0.80;;
78561;SDS011;68963;52.138;5.446;2024-03-29T01:46:27;3.80;;;0.70;;
78561;SDS011;68963;52.138;5.446;2024-03-29T01:48:53;3.67;;;0.80;;
78561;SDS011;68963;52.138;5.446;2024-03-29T01:51:22;4.55;;;0.60;;
78561;SDS011;68963;52.138;5.446;2024-03-29T01:53:49;2.83;;;0.60;;
78561;SDS011;68963;52.138;5.446;2024-03-29T01:56:18;4.13;;;0.70;;
78561;SDS011;68963;52.138;5.446;2024-03-29T01:58:45;2.88;;;0.70;;
78561;SDS011;68963;52.138;5.446;2024-03-29T02:01:11;4.47;;;0.80;;
78561;SDS011;68963;52.138;5.446;2024-03-29T02:03:37;5.53;;;0.65;;
78561;SDS011;68963;52.138;5.446;2024-03-29T02:06:02;4.93;;;0.80;;
78561;SDS011;68963;52.138;5.446;2024-03-29T02:08:29;2.92;;;0.68;;
78561;SDS011;68963;52.138;5.446;2024-03-29T02:10:54;4.40;;;0.70;;
78561;SDS011;68963;52.138;5.446;2024-03-29T02:13:21;4.57;;;0.70;;
78561;SDS011;68963;52.138;5.446;2024-03-29T02:15:46;4.35;;;0.80;;
78561;SDS011;68963;52.138;5.446;2024-03-29T02:18:12;4.57;;;0.52;;
78561;SDS011;68963;52.138;5.446;2024-03-29T02:20:38;6.95;;;1.00;;
78561;SDS011;68963;52.138;5.446;2024-03-29T02:23:07;4.78;;;0.70;;
78561;SDS011;68963;52.138;5.446;2024-03-29T02:25:36;2.45;;;0.50;;
78561;SDS011;68963;52.138;5.446;2024-03-29T02:28:02;5.05;;;0.80;;
78561;SDS011;68963;52.138;5.446;2024-03-29T02:30:28;3.97;;;0.80;;
78561;SDS011;68963;52.138;5.446;2024-03-29T02:32:58;4.03;;;0.82;;
78561;SDS011;68963;52.138;5.446;2024-03-29T02:35:24;4.70;;;0.60;;
78561;SDS011;68963;52.138;5.446;2024-03-29T02:37:51;2.78;;;0.50;;
78561;SDS011;68963;52.138;5.446;2024-03-29T02:40:16;3.50;;;0.65;;
78561;SDS011;68963;52.138;5.446;2024-03-29T02:42:42;4.35;;;0.77;;
78561;SDS011;68963;52.138;5.446;2024-03-29T02:45:08;4.72;;;0.70;;
78561;SDS011;68963;52.138;5.446;2024-03-29T02:47:33;4.40;;;0.55;;
78561;SDS011;68963;52.138;5.446;2024-03-29T02:49:59;2.60;;;0.60;;
78561;SDS011;68963;52.138;5.446;2024-03-29T02:52:25;6.63;;;0.68;;
78561;SDS011;68963;52.138;5.446;2024-03-29T02:54:50;5.53;;;0.70;;
78561;SDS011;68963;52.138;5.446;2024-03-29T02:57:16;4.10;;;0.98;;
78561;SDS011;68963;52.138;5.446;2024-03-29T02:59:42;4.10;;;0.65;;
78561;SDS011;68963;52.138;5.446;2024-03-29T03:02:08;3.28;;;0.85;;
78561;SDS011;68963;52.138;5.446;2024-03-29T03:04:33;3.28;;;0.60;;
78561;SDS011;68963;52.138;5.446;2024-03-29T03:06:59;3.67;;;0.70;;
78561;SDS011;68963;52.138;5.446;2024-03-29T03:09:43;3.42;;;0.70;;
78561;SDS011;68963;52.138;5.446;2024-03-29T03:12:29;5.03;;;0.63;;
78561;SDS011;68963;52.138;5.446;2024-03-29T03:14:55;3.33;;;0.70;;
78561;SDS011;68963;52.138;5.446;2024-03-29T03:17:20;6.40;;;0.73;;
78561;SDS011;68963;52.138;5.446;2024-03-29T03:19:46;3.40;;;1.00;;
78561;SDS011;68963;52.138;5.446;2024-03-29T03:22:11;2.83;;;0.60;;
78561;SDS011;68963;52.138;5.446;2024-03-29T03:24:37;5.93;;;0.90;;
78561;SDS011;68963;52.138;5.446;2024-03-29T03:27:03;3.63;;;0.65;;
78561;SDS011;68963;52.138;5.446;2024-03-29T03:29:28;3.53;;;0.50;;
78561;SDS011;68963;52.138;5.446;2024-03-29T03:31:54;4.80;;;0.80;;
78561;SDS011;68963;52.138;5.446;2024-03-29T03:34:20;4.60;;;0.70;;
78561;SDS011;68963;52.138;5.446;2024-03-29T03:36:45;4.75;;;0.90;;
78561;SDS011;68963;52.138;5.446;2024-03-29T03:39:11;3.42;;;0.90;;
78561;SDS011;68963;52.138;5.446;2024-03-29T03:41:36;5.00;;;0.77;;
78561;SDS011;68963;52.138;5.446;2024-03-29T03:44:02;4.18;;;0.80;;
78561;SDS011;68963;52.138;5.446;2024-03-29T03:46:27;3.22;;;0.63;;
78561;SDS011;68963;52.138;5.446;2024-03-29T03:48:53;3.17;;;0.60;;
78561;SDS011;68963;52.138;5.446;2024-03-29T03:51:18;5.93;;;0.90;;
78561;SDS011;68963;52.138;5.446;2024-03-29T03:53:44;3.95;;;0.90;;
78561;SDS011;68963;52.138;5.446;2024-03-29T03:56:09;3.75;;;0.75;;
78561;SDS011;68963;52.138;5.446;2024-03-29T03:58:35;3.45;;;0.68;;
78561;SDS011;68963;52.138;5.446;2024-03-29T04:01:04;2.15;;;0.60;;
78561;SDS011;68963;52.138;5.446;2024-03-29T04:03:30;5.93;;;0.68;;
78561;SDS011;68963;52.138;5.446;2024-03-29T04:05:56;4.63;;;0.60;;
78561;SDS011;68963;52.138;5.446;2024-03-29T04:08:22;2.88;;;0.60;;
78561;SDS011;68963;52.138;5.446;2024-03-29T04:10:47;4.20;;;0.65;;
78561;SDS011;68963;52.138;5.446;2024-03-29T04:13:13;3.50;;;0.73;;
78561;SDS011;68963;52.138;5.446;2024-03-29T04:15:39;3.33;;;0.70;;
78561;SDS011;68963;52.138;5.446;2024-03-29T04:18:06;2.88;;;0.60;;
78561;SDS011;68963;52.138;5.446;2024-03-29T04:20:32;4.03;;;0.70;;
78561;SDS011;68963;52.138;5.446;2024-03-29T04:22:57;4.03;;;0.70;;
78561;SDS011;68963;52.138;5.446;2024-03-29T04:25:23;3.88;;;0.60;;
78561;SDS011;68963;52.138;5.446;2024-03-29T04:27:48;5.10;;;0.70;;
78561;SDS011;68963;52.138;5.446;2024-03-29T04:30:14;5.65;;;0.70;;
78561;SDS011;68963;52.138;5.446;2024-03-29T04:32:40;4.93;;;0.60;;
78561;SDS011;68963;52.138;5.446;2024-03-29T04:35:05;2.20;;;0.50;;
78561;SDS011;68963;52.138;5.446;2024-03-29T04:37:31;3.22;;;0.70;;
78561;SDS011;68963;52.138;5.446;2024-03-29T04:39:57;2.75;;;0.65;;
78561;SDS011;68963;52.138;5.446;2024-03-29T04:42:22;3.25;;;0.80;;
78561;SDS011;68963;52.138;5.446;2024-03-29T04:44:48;3.28;;;0.50;;
78561;SDS011;68963;52.138;5.446;2024-03-29T04:47:13;4.15;;;0.70;;
78561;SDS011;68963;52.138;5.446;2024-03-29T04:49:39;3.25;;;0.60;;
78561;SDS011;68963;52.138;5.446;2024-03-29T04:52:05;3.78;;;0.50;;
78561;SDS011;68963;52.138;5.446;2024-03-29T04:54:34;3.90;;;0.50;;
78561;SDS011;68963;52.138;5.446;2024-03-29T04:57:00;2.42;;;0.50;;
78561;SDS011;68963;52.138;5.446;2024-03-29T04:59:27;2.30;;;0.50;;
78561;SDS011;68963;52.138;5.446;2024-03-29T05:01:54;2.17;;;0.40;;
78561;SDS011;68963;52.138;5.446;2024-03-29T05:04:21;1.60;;;0.40;;
78561;SDS011;68963;52.138;5.446;2024-03-29T05:06:54;1.80;;;0.40;;
78561;SDS011;68963;52.138;5.446;2024-03-29T05:09:21;3.70;;;0.60;;
78561;SDS011;68963;52.138;5.446;2024-03-29T05:11:47;2.33;;;0.50;;
78561;SDS011;68963;52.138;5.446;2024-03-29T05:14:13;2.83;;;0.40;;
78561;SDS011;68963;52.138;5.446;2024-03-29T05:16:46;2.80;;;0.40;;
78561;SDS011;68963;52.138;5.446;2024-03-29T05:19:12;3.22;;;0.40;;
78561;SDS011;68963;52.138;5.446;2024-03-29T05:21:41;2.47;;;0.40;;
78561;SDS011;68963;52.138;5.446;2024-03-29T05:24:07;3.53;;;0.80;;
78561;SDS011;68963;52.138;5.446;2024-03-29T05:26:34;4.03;;;0.60;;
78561;SDS011;68963;52.138;5.446;2024-03-29T05:28:59;2.45;;;0.57;;
78561;SDS011;68963;52.138;5.446;2024-03-29T05:31:25;4.50;;;0.57;;
78561;SDS011;68963;52.138;5.446;2024-03-29T05:33:52;3.53;;;0.55;;
78561;SDS011;68963;52.138;5.446;2024-03-29T05:36:18;3.28;;;0.60;;
78561;SDS011;68963;52.138;5.446;2024-03-29T05:38:44;1.90;;;0.40;;
78561;SDS011;68963;52.138;5.446;2024-03-29T05:41:10;2.95;;;0.60;;
78561;SDS011;68963;52.138;5.446;2024-03-29T05:43:35;2.78;;;0.60;;
78561;SDS011;68963;52.138;5.446;2024-03-29T05:46:01;2.90;;;0.60;;
78561;SDS011;68963;52.138;5.446;2024-03-29T05:48:28;2.55;;;0.50;;
78561;SDS011;68963;52.138;5.446;2024-03-29T05:50:54;3.33;;;0.68;;
78561;SDS011;68963;52.138;5.446;2024-03-29T05:53:19;4.72;;;0.70;;
78561;SDS011;68963;52.138;5.446;2024-03-29T05:55:45;4.32;;;0.80;;
78561;SDS011;68963;52.138;5.446;2024-03-29T05:58:11;3.83;;;0.63;;
78561;SDS011;68963;52.138;5.446;2024-03-29T06:00:36;5.57;;;0.75;;
78561;SDS011;68963;52.138;5.446;2024-03-29T06:03:02;5.75;;;0.60;;
78561;SDS011;68963;52.138;5.446;2024-03-29T06:05:28;5.00;;;0.60;;
78561;SDS011;68963;52.138;5.446;2024-03-29T06:07:54;3.17;;;0.63;;
78561;SDS011;68963;52.138;5.446;2024-03-29T06:10:19;3.58;;;0.70;;
78561;SDS011;68963;52.138;5.446;2024-03-29T06:12:45;3.10;;;0.57;;
78561;SDS011;68963;52.138;5.446;2024-03-29T06:15:11;3.83;;;0.80;;
78561;SDS011;68963;52.138;5.446;2024-03-29T06:17:55;3.83;;;0.65;;
78561;SDS011;68963;52.138;5.446;2024-03-29T06:20:21;3.03;;;0.63;;
78561;SDS011;68963;52.138;5.446;2024-03-29T06:22:46;3.88;;;0.70;;
78561;SDS011;68963;52.138;5.446;2024-03-29T06:25:12;5.47;;;0.95;;
78561;SDS011;68963;52.138;5.446;2024-03-29T06:27:38;3.75;;;0.90;;
78561;SDS011;68963;52.138;5.446;2024-03-29T06:30:04;2.75;;;0.60;;
78561;SDS011;68963;52.138;5.446;2024-03-29T06:32:31;3.42;;;0.70;;
78561;SDS011;68963;52.138;5.446;2024-03-29T06:34:57;4.35;;;0.80;;
78561;SDS011;68963;52.138;5.446;2024-03-29T06:37:24;4.70;;;0.60;;
78561;SDS011;68963;52.138;5.446;2024-03-29T06:39:51;4.50;;;0.90;;
78561;SDS011;68963;52.138;5.446;2024-03-29T06:42:17;3.05;;;0.70;;
78561;SDS011;68963;52.138;5.446;2024-03-29T06:44:43;2.85;;;0.60;;
78561;SDS011;68963;52.138;5.446;2024-03-29T06:47:09;2.95;;;0.82;;
78561;SDS011;68963;52.138;5.446;2024-03-29T06:49:35;3.58;;;0.80;;
78561;SDS011;68963;52.138;5.446;2024-03-29T06:52:01;3.38;;;0.80;;
78561;SDS011;68963;52.138;5.446;2024-03-29T06:54:27;3.60;;;0.52;;
78561;SDS011;68963;52.138;5.446;2024-03-29T06:56:56;3.05;;;0.73;;
78561;SDS011;68963;52.138;5.446;2024-03-29T06:59:22;3.25;;;0.80;;
78561;SDS011;68963;52.138;5.446;2024-03-29T07:01:48;2.40;;;0.60;;
78561;SDS011;68963;52.138;5.446;2024-03-29T07:04:20;4.40;;;0.80;;
78561;SDS011;68963;52.138;5.446;2024-03-29T07:06:47;4.38;;;0.73;;
78561;SDS011;68963;52.138;5.446;2024-03-29T07:09:15;4.10;;;0.80;;
78561;SDS011;68963;52.138;5.446;2024-03-29T07:11:41;3.28;;;0.70;;
78561;SDS011;68963;52.138;5.446;2024-03-29T07:14:06;3.40;;;0.70;;
78561;SDS011;68963;52.138;5.446;2024-03-29T07:16:32;3.17;;;0.80;;
78561;SDS011;68963;52.138;5.446;2024-03-29T07:18:58;3.45;;;0.70;;
78561;SDS011;68963;52.138;5.446;2024-03-29T07:21:24;3.03;;;0.70;;
78561;SDS011;68963;52.138;5.446;2024-03-29T07:23:49;4.53;;;0.75;;
78561;SDS011;68963;52.138;5.446;2024-03-29T07:26:15;2.63;;;0.50;;
78561;SDS011;68963;52.138;5.446;2024-03-29T07:28:40;3.95;;;0.80;;
78561;SDS011;68963;52.138;5.446;2024-03-29T07:31:06;4.40;;;0.80;;
78561;SDS011;68963;52.138;5.446;2024-03-29T07:33:33;2.58;;;0.60;;
78561;SDS011;68963;52.138;5.446;2024-03-29T07:35:59;3.70;;;0.77;;
78561;SDS011;68963;52.138;5.446;2024-03-29T07:38:25;2.30;;;0.70;;
78561;SDS011;68963;52.138;5.446;2024-03-29T07:40:50;3.47;;;0.70;;
78561;SDS011;68963;52.138;5.446;2024-03-29T07:43:18;2.67;;;0.70;;
78561;SDS011;68963;52.138;5.446;2024-03-29T07:45:44;2.75;;;0.70;;
78561;SDS011;68963;52.138;5.446;2024-03-29T07:48:11;3.03;;;0.75;;
78561;SDS011;68963;52.138;5.446;2024-03-29T07:53:07;3.47;;;0.80;;
78561;SDS011;68963;52.138;5.446;2024-03-29T07:55:40;3.80;;;0.85;;
78561;SDS011;68963;52.138;5.446;2024-03-29T07:58:08;2.75;;;0.73;;
78561;SDS011;68963;52.138;5.446;2024-03-29T08:00:35;3.53;;;0.80;;
78561;SDS011;68963;52.138;5.446;2024-03-29T08:03:06;3.90;;;0.90;;
78561;SDS011;68963;52.138;5.446;2024-03-29T08:05:32;3.83;;;0.82;;
78561;SDS011;68963;52.138;5.446;2024-03-29T08:07:59;2.95;;;0.88;;
78561;SDS011;68963;52.138;5.446;2024-03-29T08:10:24;3.10;;;0.90;;
78561;SDS011;68963;52.138;5.446;2024-03-29T08:12:50;2.65;;;0.82;;
78561;SDS011;68963;52.138;5.446;2024-03-29T08:15:16;3.17;;;0.80;;
78561;SDS011;68963;52.138;5.446;2024-03-29T08:17:43;4.35;;;0.80;;
78561;SDS011;68963;52.138;5.446;2024-03-29T08:20:10;3.92;;;0.80;;
78561;SDS011;68963;52.138;5.446;2024-03-29T08:22:36;2.50;;;0.60;;
78561;SDS011;68963;52.138;5.446;2024-03-29T08:25:01;2.72;;;0.70;;
78561;SDS011;68963;52.138;5.446;2024-03-29T08:27:27;2.60;;;0.70;;
78561;SDS011;68963;52.138;5.446;2024-03-29T08:29:53;2.65;;;0.60;;
78561;SDS011;68963;52.138;5.446;2024-03-29T08:32:19;2.42;;;0.60;;
78561;SDS011;68963;52.138;5.446;2024-03-29T08:34:44;3.28;;;0.65;;
78561;SDS011;68963;52.138;5.446;2024-03-29T08:37:10;2.72;;;0.60;;
78561;SDS011;68963;52.138;5.446;2024-03-29T08:39:35;2.42;;;0.52;;
78561;SDS011;68963;52.138;5.446;2024-03-29T08:42:03;3.40;;;0.65;;
78561;SDS011;68963;52.138;5.446;2024-03-29T08:44:34;2.00;;;0.50;;
78561;SDS011;68963;52.138;5.446;2024-03-29T08:46:59;5.05;;;0.80;;
78561;SDS011;68963;52.138;5.446;2024-03-29T08:49:29;2.83;;;0.70;;
78561;SDS011;68963;52.138;5.446;2024-03-29T08:51:55;3.83;;;0.70;;
78561;SDS011;68963;52.138;5.446;2024-03-29T08:54:22;2.15;;;0.57;;
78561;SDS011;68963;52.138;5.446;2024-03-29T08:56:48;2.67;;;0.68;;
78561;SDS011;68963;52.138;5.446;2024-03-29T08:59:14;3.10;;;0.70;;
78561;SDS011;68963;52.138;5.446;2024-03-29T09:01:44;2.85;;;0.70;;
78561;SDS011;68963;52.138;5.446;2024-03-29T09:04:13;2.70;;;0.70;;
78561;SDS011;68963;52.138;5.446;2024-03-29T09:06:41;2.80;;;0.70;;
78561;SDS011;68963;52.138;5.446;2024-03-29T09:09:07;3.40;;;0.77;;
78561;SDS011;68963;52.138;5.446;2024-03-29T09:11:33;3.67;;;0.90;;
78561;SDS011;68963;52.138;5.446;2024-03-29T09:13:59;3.17;;;0.88;;
78561;SDS011;68963;52.138;5.446;2024-03-29T09:16:26;3.55;;;0.88;;
78561;SDS011;68963;52.138;5.446;2024-03-29T09:18:53;3.33;;;0.80;;
78561;SDS011;68963;52.138;5.446;2024-03-29T09:21:19;2.53;;;0.70;;
78561;SDS011;68963;52.138;5.446;2024-03-29T09:23:45;2.88;;;0.70;;
78561;SDS011;68963;52.138;5.446;2024-03-29T09:26:12;3.50;;;0.70;;
78561;SDS011;68963;52.138;5.446;2024-03-29T09:28:39;3.10;;;0.70;;
78561;SDS011;68963;52.138;5.446;2024-03-29T09:31:05;3.95;;;0.75;;
78561;SDS011;68963;52.138;5.446;2024-03-29T09:33:31;3.97;;;0.70;;
78561;SDS011;68963;52.138;5.446;2024-03-29T09:35:57;3.90;;;0.63;;
78561;SDS011;68963;52.138;5.446;2024-03-29T09:38:24;3.75;;;0.70;;
78561;SDS011;68963;52.138;5.446;2024-03-29T09:43:33;3.80;;;0.80;;
78561;SDS011;68963;52.138;5.446;2024-03-29T09:45:59;3.30;;;0.80;;
78561;SDS011;68963;52.138;5.446;2024-03-29T09:48:26;2.90;;;0.70;;
78561;SDS011;68963;52.138;5.446;2024-03-29T09:50:52;3.40;;;0.90;;
78561;SDS011;68963;52.138;5.446;2024-03-29T09:53:20;3.17;;;0.77;;
78561;SDS011;68963;52.138;5.446;2024-03-29T09:55:47;4.97;;;0.90;;
78561;SDS011;68963;52.138;5.446;2024-03-29T09:58:13;5.00;;;1.00;;
78561;SDS011;68963;52.138;5.446;2024-03-29T10:00:38;3.75;;;0.77;;
78561;SDS011;68963;52.138;5.446;2024-03-29T10:03:05;4.10;;;0.98;;
78561;SDS011;68963;52.138;5.446;2024-03-29T10:05:31;5.07;;;0.98;;
78561;SDS011;68963;52.138;5.446;2024-03-29T10:07:57;5.38;;;1.23;;
78561;SDS011;68963;52.138;5.446;2024-03-29T10:10:30;4.40;;;1.10;;
78561;SDS011;68963;52.138;5.446;2024-03-29T10:12:57;3.63;;;0.90;;
78561;SDS011;68963;52.138;5.446;2024-03-29T10:15:22;3.50;;;1.00;;
78561;SDS011;68963;52.138;5.446;2024-03-29T10:17:51;3.75;;;0.95;;
78561;SDS011;68963;52.138;5.446;2024-03-29T10:20:18;3.33;;;1.00;;
78561;SDS011;68963;52.138;5.446;2024-03-29T10:22:44;3.92;;;1.13;;
78561;SDS011;68963;52.138;5.446;2024-03-29T10:25:11;3.22;;;1.05;;
78561;SDS011;68963;52.138;5.446;2024-03-29T10:27:38;4.03;;;1.30;;
78561;SDS011;68963;52.138;5.446;2024-03-29T10:30:08;3.63;;;1.10;;
78561;SDS011;68963;52.138;5.446;2024-03-29T10:32:38;2.92;;;1.00;;
78561;SDS011;68963;52.138;5.446;2024-03-29T10:35:05;3.85;;;1.00;;
78561;SDS011;68963;52.138;5.446;2024-03-29T10:37:32;3.88;;;1.13;;
78561;SDS011;68963;52.138;5.446;2024-03-29T10:40:05;4.35;;;1.10;;
78561;SDS011;68963;52.138;5.446;2024-03-29T10:42:36;3.55;;;1.20;;
78561;SDS011;68963;52.138;5.446;2024-03-29T10:45:02;3.92;;;1.15;;
78561;SDS011;68963;52.138;5.446;2024-03-29T10:47:28;5.60;;;1.23;;
78561;SDS011;68963;52.138;5.446;2024-03-29T10:49:55;5.50;;;1.30;;
78561;SDS011;68963;52.138;5.446;2024-03-29T10:52:24;4.63;;;1.30;;
78561;SDS011;68963;52.138;5.446;2024-03-29T10:54:51;3.92;;;1.00;;
78561;SDS011;68963;52.138;5.446;2024-03-29T10:57:24;3.60;;;1.05;;
78561;SDS011;68963;52.138;5.446;2024-03-29T11:00:01;3.65;;;1.30;;
78561;SDS011;68963;52.138;5.446;2024-03-29T11:02:49;4.57;;;1.10;;
78561;SDS011;68963;52.138;5.446;2024-03-29T11:05:34;3.33;;;1.05;;
78561;SDS011;68963;52.138;5.446;2024-03-29T11:08:03;3.53;;;1.10;;
78561;SDS011;68963;52.138;5.446;2024-03-29T11:15:59;3.42;;;1.20;;
78561;SDS011;68963;52.138;5.446;2024-03-29T11:18:26;3.63;;;1.20;;
78561;SDS011;68963;52.138;5.446;2024-03-29T11:20:52;3.50;;;1.23;;
78561;SDS011;68963;52.138;5.446;2024-03-29T11:23:20;4.00;;;1.27;;
78561;SDS011;68963;52.138;5.446;2024-03-29T11:25:51;3.83;;;1.23;;
78561;SDS011;68963;52.138;5.446;2024-03-29T11:28:25;3.10;;;1.20;;
78561;SDS011;68963;52.138;5.446;2024-03-29T11:31:01;3.40;;;1.30;;
78561;SDS011;68963;52.138;5.446;2024-03-29T11:33:32;3.85;;;1.40;;
78561;SDS011;68963;52.138;5.446;2024-03-29T11:36:10;4.05;;;1.83;;
78561;SDS011;68963;52.138;5.446;2024-03-29T11:38:38;3.47;;;1.42;;
78561;SDS011;68963;52.138;5.446;2024-03-29T11:41:23;4.00;;;1.25;;
78561;SDS011;68963;52.138;5.446;2024-03-29T11:43:50;4.40;;;1.33;;
78561;SDS011;68963;52.138;5.446;2024-03-29T11:46:16;3.92;;;1.38;;
78561;SDS011;68963;52.138;5.446;2024-03-29T11:48:43;3.45;;;1.23;;
78561;SDS011;68963;52.138;5.446;2024-03-29T11:51:15;3.00;;;1.20;;
78561;SDS011;68963;52.138;5.446;2024-03-29T11:53:42;3.17;;;1.23;;
78561;SDS011;68963;52.138;5.446;2024-03-29T11:56:08;3.72;;;1.00;;
78561;SDS011;68963;52.138;5.446;2024-03-29T11:58:34;3.67;;;0.95;;
78561;SDS011;68963;52.138;5.446;2024-03-29T12:01:00;3.20;;;1.00;;
78561;SDS011;68963;52.138;5.446;2024-03-29T12:03:27;3.20;;;1.02;;
78561;SDS011;68963;52.138;5.446;2024-03-29T12:05:54;4.78;;;1.20;;
78561;SDS011;68963;52.138;5.446;2024-03-29T12:08:34;3.42;;;1.10;;
78561;SDS011;68963;52.138;5.446;2024-03-29T12:11:01;4.32;;;1.10;;
78561;SDS011;68963;52.138;5.446;2024-03-29T12:13:28;3.38;;;1.23;;
78561;SDS011;68963;52.138;5.446;2024-03-29T12:15:54;3.78;;;1.15;;
78561;SDS011;68963;52.138;5.446;2024-03-29T12:18:20;4.28;;;1.10;;
78561;SDS011;68963;52.138;5.446;2024-03-29T12:20:48;3.78;;;1.25;;
78561;SDS011;68963;52.138;5.446;2024-03-29T12:23:18;3.25;;;1.25;;
78561;SDS011;68963;52.138;5.446;2024-03-29T12:25:46;3.45;;;1.20;;
78561;SDS011;68963;52.138;5.446;2024-03-29T12:28:13;3.88;;;1.25;;
78561;SDS011;68963;52.138;5.446;2024-03-29T12:30:44;3.65;;;1.40;;
78561;SDS011;68963;52.138;5.446;2024-03-29T12:33:12;4.35;;;1.63;;
78561;SDS011;68963;52.138;5.446;2024-03-29T12:35:41;3.67;;;1.50;;
78561;SDS011;68963;52.138;5.446;2024-03-29T12:38:10;4.00;;;1.67;;
78561;SDS011;68963;52.138;5.446;2024-03-29T12:40:37;4.38;;;1.73;;
78561;SDS011;68963;52.138;5.446;2024-03-29T12:45:32;4.15;;;1.80;;
78561;SDS011;68963;52.138;5.446;2024-03-29T12:47:58;4.32;;;1.70;;
78561;SDS011;68963;52.138;5.446;2024-03-29T12:50:25;3.55;;;1.55;;
78561;SDS011;68963;52.138;5.446;2024-03-29T12:52:56;3.97;;;1.70;;
78561;SDS011;68963;52.138;5.446;2024-03-29T12:55:24;5.10;;;1.90;;
78561;SDS011;68963;52.138;5.446;2024-03-29T12:57:53;3.85;;;1.75;;
78561;SDS011;68963;52.138;5.446;2024-03-29T13:00:20;3.92;;;2.05;;
78561;SDS011;68963;52.138;5.446;2024-03-29T13:02:45;4.65;;;2.05;;
78561;SDS011;68963;52.138;5.446;2024-03-29T13:05:11;4.78;;;2.05;;
78561;SDS011;68963;52.138;5.446;2024-03-29T13:07:37;4.15;;;2.10;;
78561;SDS011;68963;52.138;5.446;2024-03-29T13:10:03;4.53;;;2.17;;
78561;SDS011;68963;52.138;5.446;2024-03-29T13:12:38;4.43;;;2.20;;
78561;SDS011;68963;52.138;5.446;2024-03-29T13:15:18;5.00;;;2.70;;
78561;SDS011;68963;52.138;5.446;2024-03-29T13:17:45;4.50;;;1.90;;
78561;SDS011;68963;52.138;5.446;2024-03-29T13:20:13;5.45;;;2.15;;
78561;SDS011;68963;52.138;5.446;2024-03-29T13:25:08;5.00;;;2.53;;
78561;SDS011;68963;52.138;5.446;2024-03-29T13:27:36;4.57;;;1.90;;
78561;SDS011;68963;52.138;5.446;2024-03-29T13:30:06;4.28;;;1.80;;
78561;SDS011;68963;52.138;5.446;2024-03-29T13:32:32;4.30;;;1.90;;
78561;SDS011;68963;52.138;5.446;2024-03-29T13:34:59;4.53;;;1.70;;
78561;SDS011;68963;52.138;5.446;2024-03-29T13:37:25;4.32;;;1.73;;
78561;SDS011;68963;52.138;5.446;2024-03-29T13:39:54;3.95;;;1.70;;
78561;SDS011;68963;52.138;5.446;2024-03-29T13:42:20;4.82;;;1.85;;
78561;SDS011;68963;52.138;5.446;2024-03-29T13:44:49;4.65;;;1.70;;
78561;SDS011;68963;52.138;5.446;2024-03-29T13:47:15;4.07;;;1.70;;
78561;SDS011;68963;52.138;5.446;2024-03-29T13:49:42;3.92;;;1.50;;
78561;SDS011;68963;52.138;5.446;2024-03-29T13:52:08;4.93;;;1.58;;
78561;SDS011;68963;52.138;5.446;2024-03-29T13:54:34;3.45;;;1.25;;
78561;SDS011;68963;52.138;5.446;2024-03-29T13:56:59;4.57;;;1.45;;
78561;SDS011;68963;52.138;5.446;2024-03-29T13:59:26;3.20;;;1.20;;
78561;SDS011;68963;52.138;5.446;2024-03-29T14:01:52;3.70;;;1.30;;
78561;SDS011;68963;52.138;5.446;2024-03-29T14:04:18;3.40;;;1.33;;
78561;SDS011;68963;52.138;5.446;2024-03-29T14:06:44;4.07;;;1.40;;
78561;SDS011;68963;52.138;5.446;2024-03-29T14:09:09;4.78;;;1.25;;
78561;SDS011;68963;52.138;5.446;2024-03-29T14:11:36;4.95;;;1.20;;
78561;SDS011;68963;52.138;5.446;2024-03-29T14:14:01;4.15;;;1.20;;
78561;SDS011;68963;52.138;5.446;2024-03-29T14:16:27;4.65;;;1.38;;
78561;SDS011;68963;52.138;5.446;2024-03-29T14:18:52;3.50;;;1.00;;
78561;SDS011;68963;52.138;5.446;2024-03-29T14:21:18;3.95;;;1.10;;
78561;SDS011;68963;52.138;5.446;2024-03-29T14:23:43;4.50;;;1.20;;
78561;SDS011;68963;52.138;5.446;2024-03-29T14:26:09;4.53;;;1.00;;
78561;SDS011;68963;52.138;5.446;2024-03-29T14:28:35;3.47;;;0.95;;
78561;SDS011;68963;52.138;5.446;2024-03-29T14:31:00;4.32;;;1.10;;
78561;SDS011;68963;52.138;5.446;2024-03-29T14:33:26;3.05;;;1.00;;
78561;SDS011;68963;52.138;5.446;2024-03-29T14:35:51;2.70;;;0.90;;
78561;SDS011;68963;52.138;5.446;2024-03-29T14:38:18;2.80;;;0.90;;
78561;SDS011;68963;52.138;5.446;2024-03-29T14:40:45;3.05;;;0.90;;
78561;SDS011;68963;52.138;5.446;2024-03-29T14:43:11;3.88;;;1.00;;
78561;SDS011;68963;52.138;5.446;2024-03-29T14:45:39;3.03;;;1.10;;
78561;SDS011;68963;52.138;5.446;2024-03-29T14:48:05;3.17;;;0.80;;
78561;SDS011;68963;52.138;5.446;2024-03-29T14:50:31;3.25;;;0.90;;
78561;SDS011;68963;52.138;5.446;2024-03-29T14:52:57;3.42;;;0.70;;
78561;SDS011;68963;52.138;5.446;2024-03-29T14:55:23;2.55;;;0.70;;
78561;SDS011;68963;52.138;5.446;2024-03-29T14:57:48;4.43;;;1.35;;
78561;SDS011;68963;52.138;5.446;2024-03-29T15:00:14;2.25;;;0.70;;
78561;SDS011;68963;52.138;5.446;2024-03-29T15:02:41;4.88;;;1.08;;